Time;durP1;ratioP1;P1;durP2;ratioP2;P2;SDS_P1;SDS_P2;PMS_P1;PMS_P2;Temp;Humidity;BMP_temperature;BMP_pressure;BME280_temperature;BME280_humidity;BME280_pressure;Samples;Min_cycle;Max_cycle;Signal;HPM_P1;HPM_P2
2023/05/17 00:01:43;;;;;;;18.75;3.58;;;8.90;99.90;;;;;;5058478;28;20101;-75
2023/05/17 00:04:09;;;;;;;18.85;4.03;;;8.90;99.90;;;;;;5071176;28;20079;-75
2023/05/17 00:06:35;;;;;;;17.08;3.42;;;9.00;99.90;;;;;;5054631;28;20036;-75
2023/05/17 00:09:01;;;;;;;19.30;3.72;;;9.00;99.90;;;;;;5043834;28;20045;-76
2023/05/17 00:11:27;;;;;;;19.33;4.38;;;9.00;99.90;;;;;;5034172;28;20058;-75
2023/05/17 00:13:53;;;;;;;19.63;4.03;;;9.00;99.90;;;;;;5041847;28;20710;-76
2023/05/17 00:16:19;;;;;;;17.17;4.15;;;9.10;99.90;;;;;;5054006;28;20494;-76
2023/05/17 00:18:44;;;;;;;20.33;4.38;;;9.10;99.90;;;;;;5048600;28;20040;-76
2023/05/17 00:21:10;;;;;;;21.92;4.00;;;9.10;99.90;;;;;;5073311;28;20036;-75
2023/05/17 00:23:36;;;;;;;18.98;3.95;;;9.10;99.90;;;;;;5046050;28;20043;-76
2023/05/17 00:26:01;;;;;;;21.13;4.18;;;9.10;99.90;;;;;;5057818;28;20119;-76
2023/05/17 00:28:27;;;;;;;20.35;3.42;;;9.10;99.90;;;;;;5074483;28;20100;-76
2023/05/17 00:30:53;;;;;;;19.33;3.72;;;9.10;99.90;;;;;;5059833;28;20048;-75
2023/05/17 00:33:19;;;;;;;18.40;3.85;;;9.20;99.90;;;;;;5059438;28;20035;-75
2023/05/17 00:35:44;;;;;;;17.85;4.10;;;9.20;99.90;;;;;;5057000;28;20093;-75
2023/05/17 00:38:10;;;;;;;20.55;3.78;;;9.20;99.90;;;;;;5037238;28;20035;-76
2023/05/17 00:40:36;;;;;;;20.58;3.85;;;9.20;99.90;;;;;;5055666;28;20043;-76
2023/05/17 00:43:01;;;;;;;21.65;4.15;;;9.10;99.90;;;;;;5019607;28;20048;-75
2023/05/17 00:45:27;;;;;;;20.15;4.35;;;9.10;99.90;;;;;;5049677;28;20037;-76
2023/05/17 00:47:53;;;;;;;21.42;4.13;;;9.10;99.90;;;;;;5056627;28;20048;-75
2023/05/17 00:50:19;;;;;;;15.18;3.80;;;9.10;99.90;;;;;;5051576;28;20124;-76
2023/05/17 00:52:45;;;;;;;23.40;4.47;;;9.10;99.90;;;;;;5029954;28;20041;-76
2023/05/17 00:55:11;;;;;;;23.48;4.30;;;9.00;99.90;;;;;;5061702;28;20134;-76
2023/05/17 00:57:37;;;;;;;20.65;3.58;;;9.00;99.90;;;;;;5057203;28;20066;-76
2023/05/17 01:00:03;;;;;;;15.05;3.83;;;9.00;99.90;;;;;;5057068;28;20036;-76
2023/05/17 01:02:29;;;;;;;17.20;3.47;;;9.00;99.90;;;;;;5073677;28;20101;-76
2023/05/17 01:04:56;;;;;;;17.92;3.88;;;9.00;99.90;;;;;;5068079;28;20044;-75
2023/05/17 01:07:21;;;;;;;23.33;3.95;;;9.00;99.90;;;;;;5073875;28;20044;-76
2023/05/17 01:09:47;;;;;;;19.05;3.85;;;8.90;99.90;;;;;;5073500;28;20112;-76
2023/05/17 01:12:28;;;;;;;19.15;3.67;;;9.00;99.90;;;;;;5056791;28;20169;-76
2023/05/17 01:15:30;;;;;;;21.55;3.78;;;9.00;99.90;;;;;;5053929;28;20506;-76
2023/05/17 01:18:22;;;;;;;19.52;3.80;;;8.90;99.90;;;;;;5074878;28;20040;-76
2023/05/17 01:20:51;;;;;;;17.02;4.15;;;8.90;99.90;;;;;;5073684;28;20039;-76
2023/05/17 01:23:26;;;;;;;20.15;4.30;;;8.90;99.90;;;;;;5056638;28;20032;-75
2023/05/17 01:25:55;;;;;;;16.90;3.50;;;8.90;99.90;;;;;;5049818;28;20074;-76
2023/05/17 01:28:22;;;;;;;20.75;4.13;;;8.90;99.90;;;;;;5055875;28;20425;-75
2023/05/17 01:30:51;;;;;;;20.92;3.50;;;8.90;99.90;;;;;;5054155;28;20447;-76
2023/05/17 01:33:18;;;;;;;17.17;3.65;;;8.90;99.90;;;;;;5078991;28;20044;-75
2023/05/17 01:35:44;;;;;;;18.77;3.88;;;9.10;99.90;;;;;;5066262;28;20061;-76
2023/05/17 01:38:10;;;;;;;18.85;4.05;;;9.00;99.90;;;;;;5063988;28;20112;-76
2023/05/17 01:40:43;;;;;;;18.88;3.85;;;9.00;99.90;;;;;;5056264;28;20118;-76
2023/05/17 01:43:38;;;;;;;18.20;3.67;;;9.00;99.90;;;;;;5065619;28;20156;-76
2023/05/17 01:46:27;;;;;;;19.05;4.13;;;9.00;99.90;;;;;;5054644;28;20517;-75
2023/05/17 01:49:04;;;;;;;14.07;3.50;;;9.00;99.90;;;;;;5060044;28;20037;-75
2023/05/17 01:51:35;;;;;;;16.17;3.60;;;9.00;99.90;;;;;;5069798;28;20119;-76
2023/05/17 01:54:10;;;;;;;22.30;3.90;;;9.00;99.90;;;;;;5051806;28;20033;-76
2023/05/17 01:56:41;;;;;;;17.08;3.05;;;9.00;99.90;;;;;;5048008;28;20044;-75
2023/05/17 01:59:10;;;;;;;16.48;3.10;;;9.00;99.90;;;;;;5054066;28;20053;-76
2023/05/17 02:01:38;;;;;;;18.13;3.25;;;9.00;99.90;;;;;;5067944;28;20505;-75
2023/05/17 02:04:04;;;;;;;15.52;2.90;;;9.00;99.90;;;;;;5072839;28;20036;-75
2023/05/17 02:06:30;;;;;;;16.52;3.10;;;8.90;99.90;;;;;;5052603;28;20099;-75
2023/05/17 02:08:57;;;;;;;15.82;2.85;;;8.90;99.90;;;;;;5042729;28;20040;-75
2023/05/17 02:11:23;;;;;;;13.30;2.80;;;8.80;99.90;;;;;;5068578;28;20101;-75
2023/05/17 02:13:48;;;;;;;13.80;3.15;;;8.80;99.90;;;;;;5055950;28;20048;-75
2023/05/17 02:16:14;;;;;;;16.30;2.88;;;8.80;99.90;;;;;;5072170;28;20063;-76
2023/05/17 02:18:40;;;;;;;12.73;2.67;;;8.80;99.90;;;;;;5061894;28;20058;-76
2023/05/17 02:21:06;;;;;;;16.23;3.00;;;8.80;99.90;;;;;;5054883;28;20040;-76
2023/05/17 02:23:31;;;;;;;16.00;3.08;;;8.80;99.90;;;;;;5054463;28;20093;-75
2023/05/17 02:25:57;;;;;;;13.32;2.65;;;8.80;99.90;;;;;;5055190;28;20494;-75
2023/05/17 02:28:23;;;;;;;15.63;2.60;;;8.70;99.90;;;;;;5051311;28;20062;-76
2023/05/17 02:30:48;;;;;;;14.98;3.05;;;8.70;99.90;;;;;;5056388;28;20109;-75
2023/05/17 02:33:14;;;;;;;16.17;2.95;;;8.70;99.90;;;;;;5051467;28;20040;-75
2023/05/17 02:35:40;;;;;;;14.80;2.90;;;8.70;99.90;;;;;;5034948;28;20063;-75
2023/05/17 02:38:06;;;;;;;13.25;2.42;;;8.70;99.90;;;;;;5053770;28;20047;-75
2023/05/17 02:40:31;;;;;;;12.73;2.80;;;8.70;99.90;;;;;;5046702;28;20512;-75
2023/05/17 02:42:57;;;;;;;13.57;2.85;;;8.70;99.90;;;;;;5070223;28;20078;-76
2023/05/17 02:45:23;;;;;;;17.30;3.60;;;8.60;99.90;;;;;;5071780;28;20047;-76
2023/05/17 02:47:48;;;;;;;13.27;3.00;;;8.60;99.90;;;;;;5072014;28;20302;-76
2023/05/17 02:50:14;;;;;;;15.38;3.60;;;8.60;99.90;;;;;;5062728;28;20075;-76
2023/05/17 02:52:40;;;;;;;14.10;2.88;;;8.60;99.90;;;;;;5071734;28;20119;-75
2023/05/17 02:55:06;;;;;;;18.50;3.30;;;8.60;99.90;;;;;;5054798;28;20263;-76
2023/05/17 02:57:32;;;;;;;14.65;2.90;;;8.50;99.90;;;;;;5069966;28;20048;-76
2023/05/17 02:59:57;;;;;;;20.70;2.92;;;8.50;99.90;;;;;;5069655;28;20048;-75
2023/05/17 03:02:23;;;;;;;15.13;2.63;;;8.50;99.90;;;;;;5071558;28;20283;-75
2023/05/17 03:04:49;;;;;;;12.43;2.20;;;;;;;;;;5054717;28;20048;-75
2023/05/17 03:07:15;;;;;;;11.95;2.65;;;8.50;99.90;;;;;;5055231;28;20044;-75
2023/05/17 03:09:41;;;;;;;14.40;2.70;;;8.50;99.90;;;;;;5017485;28;20515;-76
2023/05/17 03:12:08;;;;;;;12.95;2.60;;;8.50;99.90;;;;;;5080654;28;20558;-76
2023/05/17 03:14:33;;;;;;;17.45;2.95;;;8.40;99.90;;;;;;5054442;28;20044;-75
2023/05/17 03:16:59;;;;;;;17.38;2.50;;;8.40;99.90;;;;;;5054566;28;20058;-76
2023/05/17 03:19:25;;;;;;;18.20;3.08;;;8.30;99.90;;;;;;5071125;28;20082;-76
2023/05/17 03:21:50;;;;;;;11.35;2.20;;;8.30;99.90;;;;;;5063208;28;20171;-75
2023/05/17 03:24:16;;;;;;;15.30;2.72;;;8.30;99.90;;;;;;5051986;28;20139;-75
2023/05/17 03:26:42;;;;;;;16.17;2.63;;;8.30;99.90;;;;;;5063946;28;20040;-76
2023/05/17 03:29:08;;;;;;;15.90;2.85;;;8.20;99.90;;;;;;5042883;28;20042;-75
2023/05/17 03:31:34;;;;;;;15.07;2.72;;;8.20;99.90;;;;;;5055844;28;20052;-75
2023/05/17 03:33:59;;;;;;;16.45;2.53;;;8.20;99.90;;;;;;5054510;28;20041;-75
2023/05/17 03:36:25;;;;;;;10.73;2.65;;;8.20;99.90;;;;;;5058526;28;20417;-75
2023/05/17 03:38:51;;;;;;;15.25;3.10;;;8.30;99.90;;;;;;5049400;28;20111;-75
2023/05/17 03:41:16;;;;;;;15.43;2.92;;;8.30;99.90;;;;;;5063837;28;20271;-75
2023/05/17 03:43:42;;;;;;;14.55;2.75;;;8.30;99.90;;;;;;5052860;28;20127;-75
2023/05/17 03:46:08;;;;;;;13.77;2.40;;;8.30;99.90;;;;;;5050169;28;20044;-75
2023/05/17 03:48:33;;;;;;;14.80;2.50;;;8.40;99.90;;;;;;5058260;28;20040;-76
2023/05/17 03:50:59;;;;;;;10.98;2.33;;;8.40;99.90;;;;;;5040888;28;20093;-76
2023/05/17 03:53:25;;;;;;;11.73;2.53;;;8.40;99.90;;;;;;5035353;28;20029;-75
2023/05/17 03:55:50;;;;;;;14.20;2.72;;;8.40;99.90;;;;;;5071875;28;20165;-75
2023/05/17 03:58:17;;;;;;;9.52;1.80;;;8.40;99.90;;;;;;5074895;28;20570;-75
2023/05/17 04:00:42;;;;;;;10.88;2.22;;;8.30;99.90;;;;;;5070967;28;20036;-76
2023/05/17 04:03:08;;;;;;;20.08;3.13;;;8.40;99.90;;;;;;5073641;28;20066;-75
2023/05/17 04:05:34;;;;;;;11.07;2.28;;;8.40;99.90;;;;;;5072851;28;20075;-75
2023/05/17 04:08:00;;;;;;;10.02;2.40;;;8.40;99.90;;;;;;5075183;28;20121;-75
2023/05/17 04:10:25;;;;;;;10.68;2.47;;;8.40;99.90;;;;;;5058255;28;20036;-75
2023/05/17 04:12:51;;;;;;;12.73;2.13;;;8.50;99.90;;;;;;5054009;28;20122;-75
2023/05/17 04:15:17;;;;;;;13.15;2.40;;;8.50;99.90;;;;;;5047340;28;20124;-75
2023/05/17 04:17:43;;;;;;;11.65;2.30;;;8.50;99.90;;;;;;5057260;28;20050;-76
2023/05/17 04:20:09;;;;;;;11.18;2.50;;;8.50;99.90;;;;;;5057789;28;20054;-75
2023/05/17 04:22:35;;;;;;;13.45;2.92;;;8.50;99.90;;;;;;5041551;28;20040;-75
2023/05/17 04:25:01;;;;;;;14.02;2.60;;;8.50;99.90;;;;;;5051441;28;20409;-75
2023/05/17 04:27:27;;;;;;;13.93;2.60;;;8.50;99.90;;;;;;5037857;28;20044;-75
2023/05/17 04:29:52;;;;;;;15.35;2.75;;;8.50;99.90;;;;;;5044147;28;20179;-75
2023/05/17 04:32:18;;;;;;;10.25;2.67;;;9.60;99.90;;;;;;5070575;28;20106;-75
2023/05/17 04:34:44;;;;;;;13.68;2.38;;;8.50;99.90;;;;;;5046773;28;20124;-75
2023/05/17 04:37:09;;;;;;;14.48;2.85;;;8.50;99.90;;;;;;5052216;28;20497;-76
2023/05/17 04:39:35;;;;;;;12.32;2.65;;;8.50;99.90;;;;;;5052762;28;20070;-76
2023/05/17 04:42:02;;;;;;;15.05;2.85;;;8.50;99.90;;;;;;5067409;28;20161;-76
2023/05/17 04:44:28;;;;;;;12.23;2.30;;;8.50;99.90;;;;;;5054344;28;20044;-76
2023/05/17 04:46:53;;;;;;;13.60;2.40;;;8.60;99.90;;;;;;5065811;28;20071;-76
2023/05/17 04:49:19;;;;;;;12.20;2.58;;;8.50;99.90;;;;;;5062633;28;20409;-75
2023/05/17 04:51:45;;;;;;;10.82;2.38;;;8.60;99.90;;;;;;5070146;28;20074;-75
2023/05/17 04:54:11;;;;;;;11.63;2.17;;;8.50;99.90;;;;;;5059043;28;20570;-75
2023/05/17 04:56:36;;;;;;;10.65;2.10;;;8.60;99.90;;;;;;5060247;28;20090;-75
2023/05/17 04:59:02;;;;;;;11.55;2.03;;;8.60;99.90;;;;;;5060819;28;20044;-77
2023/05/17 05:01:34;;;;;;;8.80;2.40;;;8.60;99.90;;;;;;5045053;28;20059;-76
2023/05/17 05:04:05;;;;;;;10.73;2.40;;;8.60;99.90;;;;;;5048868;28;20048;-75
2023/05/17 05:06:31;;;;;;;12.25;2.13;;;8.60;99.90;;;;;;5059219;28;20179;-75
2023/05/17 05:08:57;;;;;;;12.20;2.53;;;8.60;99.90;;;;;;5054245;28;20408;-76
2023/05/17 05:11:23;;;;;;;12.90;2.42;;;8.60;99.90;;;;;;5036410;28;20048;-76
2023/05/17 05:13:48;;;;;;;10.23;2.35;;;8.60;99.90;;;;;;5065056;28;20043;-76
2023/05/17 05:16:14;;;;;;;14.18;2.35;;;8.70;99.90;;;;;;5062936;28;20032;-75
2023/05/17 05:18:40;;;;;;;10.70;2.13;;;8.70;99.90;;;;;;5058001;28;20157;-75
2023/05/17 05:21:05;;;;;;;15.85;2.50;;;8.70;99.90;;;;;;5051279;28;20406;-75
2023/05/17 05:23:31;;;;;;;15.32;2.63;;;8.80;99.90;;;;;;5056780;28;20028;-76
2023/05/17 05:25:57;;;;;;;9.77;2.00;;;8.80;99.90;;;;;;5055724;28;20044;-75
2023/05/17 05:28:22;;;;;;;13.07;2.47;;;8.80;99.90;;;;;;5062799;28;20093;-76
2023/05/17 05:30:48;;;;;;;14.90;2.25;;;8.80;99.90;;;;;;5053627;28;20055;-75
2023/05/17 05:33:14;;;;;;;17.55;2.92;;;8.80;99.90;;;;;;5028904;28;20067;-76
2023/05/17 05:35:40;;;;;;;15.48;2.78;;;8.90;99.90;;;;;;5057986;28;20063;-76
2023/05/17 05:38:05;;;;;;;11.00;2.20;;;9.00;99.90;;;;;;5048746;28;20181;-76
2023/05/17 05:40:31;;;;;;;14.68;2.90;;;9.00;99.90;;;;;;5056202;28;20036;-76
2023/05/17 05:42:57;;;;;;;16.88;2.63;;;9.10;99.90;;;;;;5056865;28;20185;-75
2023/05/17 05:45:22;;;;;;;13.15;2.38;;;9.10;99.90;;;;;;5072591;28;20076;-76
2023/05/17 05:47:48;;;;;;;16.38;3.20;;;9.20;99.90;;;;;;5069020;28;20036;-76
2023/05/17 05:50:14;;;;;;;13.32;2.80;;;9.20;99.90;;;;;;5055589;28;20048;-75
2023/05/17 05:52:40;;;;;;;13.00;2.75;;;9.30;99.90;;;;;;5072765;28;20059;-76
2023/05/17 05:55:06;;;;;;;12.95;3.22;;;9.40;99.90;;;;;;5055982;28;20054;-76
2023/05/17 05:57:31;;;;;;;11.93;2.88;;;9.50;99.90;;;;;;5066523;28;20122;-76
2023/05/17 05:59:57;;;;;;;15.23;3.05;;;9.60;99.90;;;;;;5063031;28;20509;-76
2023/05/17 06:02:23;;;;;;;15.30;3.30;;;9.70;99.90;;;;;;5058604;28;20502;-76
2023/05/17 06:04:49;;;;;;;11.80;2.38;;;9.80;99.90;;;;;;5055720;28;20044;-76
2023/05/17 06:07:15;;;;;;;20.15;3.50;;;9.80;99.90;;;;;;5055775;28;20406;-76
2023/05/17 06:09:41;;;;;;;13.32;2.72;;;9.70;99.90;;;;;;5070123;28;20553;-75
2023/05/17 06:12:07;;;;;;;15.07;3.38;;;9.70;99.90;;;;;;5056001;28;20067;-75
2023/05/17 06:14:33;;;;;;;12.57;2.42;;;9.70;99.90;;;;;;5072323;28;20036;-76
2023/05/17 06:16:58;;;;;;;12.80;2.75;;;9.60;99.90;;;;;;5071877;28;20128;-76
2023/05/17 06:19:24;;;;;;;15.80;3.13;;;9.60;99.90;;;;;;5068272;28;20040;-75
2023/05/17 06:21:50;;;;;;;14.35;2.70;;;9.50;99.90;;;;;;5072319;28;20100;-76
2023/05/17 06:24:15;;;;;;;16.88;3.17;;;9.50;99.90;;;;;;5072092;28;20597;-76
2023/05/17 06:26:46;;;;;;;15.38;3.15;;;9.40;99.90;;;;;;5072355;28;20474;-76
2023/05/17 06:29:11;;;;;;;19.90;3.85;;;9.40;99.90;;;;;;5054728;28;20058;-75
2023/05/17 06:31:37;;;;;;;15.35;3.17;;;9.30;99.90;;;;;;5058699;28;20044;-75
2023/05/17 06:34:03;;;;;;;17.77;3.35;;;9.30;99.90;;;;;;5071926;28;20417;-76
2023/05/17 06:36:28;;;;;;;14.93;3.30;;;9.40;99.90;;;;;;5071687;28;20550;-76
2023/05/17 06:38:54;;;;;;;13.00;2.92;;;9.40;99.90;;;;;;5065780;28;20035;-76
2023/05/17 06:41:23;;;;;;;14.15;2.45;;;9.50;99.90;;;;;;5071515;28;20084;-76
2023/05/17 06:43:49;;;;;;;13.90;2.63;;;9.50;99.90;;;;;;5055251;28;20036;-76
2023/05/17 06:46:14;;;;;;;11.73;2.33;;;9.60;99.90;;;;;;5071469;28;20040;-76
2023/05/17 06:48:40;;;;;;;12.27;3.03;;;9.70;99.90;;;;;;5064103;28;20036;-76
2023/05/17 06:51:06;;;;;;;12.18;2.70;;;9.80;99.90;;;;;;5042295;28;20097;-76
2023/05/17 06:53:31;;;;;;;11.65;2.67;;;9.90;99.90;;;;;;5062467;28;20402;-76
2023/05/17 06:55:57;;;;;;;13.95;2.67;;;10.00;99.90;;;;;;5054672;28;20043;-76
2023/05/17 06:58:23;;;;;;;13.60;2.40;;;10.00;99.90;;;;;;5054660;28;20060;-75
2023/05/17 07:00:48;;;;;;;12.55;2.97;;;10.10;99.90;;;;;;5061866;28;20241;-75
2023/05/17 07:03:14;;;;;;;11.50;2.72;;;10.10;99.90;;;;;;5054778;28;20150;-75
2023/05/17 07:05:40;;;;;;;13.35;3.20;;;10.20;99.90;;;;;;5070338;28;20492;-76
2023/05/17 07:08:06;;;;;;;14.50;2.80;;;10.30;99.90;;;;;;5035728;28;20054;-75
2023/05/17 07:10:31;;;;;;;16.60;2.65;;;10.40;99.90;;;;;;5067344;28;20040;-75
2023/05/17 07:12:58;;;;;;;12.77;2.53;;;10.60;99.90;;;;;;5071369;28;20051;-76
2023/05/17 07:15:24;;;;;;;12.80;2.88;;;10.60;99.90;;;;;;5054319;28;20317;-76
2023/05/17 07:17:49;;;;;;;13.48;2.30;;;10.60;99.90;;;;;;5054295;28;20193;-76
2023/05/17 07:20:15;;;;;;;12.38;2.53;;;10.60;99.90;;;;;;5066778;28;20046;-76
2023/05/17 07:22:41;;;;;;;11.68;2.65;;;10.60;99.90;;;;;;5062743;28;20043;-76
2023/05/17 07:25:07;;;;;;;16.45;2.90;;;10.50;99.90;;;;;;5054642;28;20040;-76
2023/05/17 07:27:33;;;;;;;15.73;2.55;;;10.50;99.90;;;;;;5050693;28;20040;-75
2023/05/17 07:30:00;;;;;;;15.73;2.40;;;10.40;99.90;;;;;;5051335;28;20047;-75
2023/05/17 07:32:26;;;;;;;15.68;2.70;;;10.40;99.90;;;;;;5063433;28;20048;-76
2023/05/17 07:34:52;;;;;;;13.25;2.45;;;10.30;99.90;;;;;;5069945;28;20457;-75
2023/05/17 07:37:17;;;;;;;12.05;2.50;;;10.40;99.90;;;;;;5037792;28;20292;-75
2023/05/17 07:39:43;;;;;;;13.73;2.50;;;10.40;99.90;;;;;;5070685;28;20080;-75
2023/05/17 07:42:09;;;;;;;17.27;3.03;;;10.40;99.90;;;;;;5067892;28;20105;-75
2023/05/17 07:44:35;;;;;;;12.00;2.42;;;10.50;99.90;;;;;;5071093;28;20043;-75
2023/05/17 07:47:00;;;;;;;13.05;2.55;;;10.40;99.90;;;;;;5034669;28;20044;-75
2023/05/17 07:49:26;;;;;;;13.23;2.33;;;10.40;99.90;;;;;;5043524;28;20137;-76
2023/05/17 07:51:54;;;;;;;14.35;2.85;;;10.50;99.90;;;;;;5066683;28;20036;-76
2023/05/17 07:54:25;;;;;;;15.68;3.13;;;10.50;99.90;;;;;;5061744;28;20097;-75
2023/05/17 07:56:53;;;;;;;14.52;2.97;;;10.60;99.90;;;;;;5070800;28;20032;-75
2023/05/17 07:59:22;;;;;;;18.25;3.25;;;10.60;99.90;;;;;;5053905;28;20424;-75
2023/05/17 08:01:48;;;;;;;17.85;3.45;;;10.60;99.90;;;;;;5070755;28;20080;-75
2023/05/17 08:04:14;;;;;;;15.15;3.22;;;10.70;99.90;;;;;;5063546;28;20047;-75
2023/05/17 08:06:41;;;;;;;17.95;3.00;;;10.70;99.90;;;;;;5037831;28;20044;-75
2023/05/17 08:09:07;;;;;;;14.88;3.17;;;10.70;99.90;;;;;;5049794;28;20124;-76
2023/05/17 08:11:33;;;;;;;13.50;2.70;;;10.70;99.90;;;;;;5068274;28;20172;-76
2023/05/17 08:14:02;;;;;;;12.68;2.83;;;10.70;99.90;;;;;;5068425;28;20044;-76
2023/05/17 08:16:28;;;;;;;12.90;2.75;;;10.70;99.90;;;;;;5070877;28;20511;-75
2023/05/17 08:18:54;;;;;;;12.52;2.60;;;10.70;99.90;;;;;;5070882;28;20055;-75
2023/05/17 08:21:21;;;;;;;16.27;3.00;;;10.70;99.90;;;;;;5070586;28;20400;-75
2023/05/17 08:23:47;;;;;;;13.27;2.40;;;10.70;99.90;;;;;;5065171;28;20044;-75
2023/05/17 08:26:13;;;;;;;15.05;2.80;;;10.90;99.90;;;;;;5065041;28;20043;-76
2023/05/17 08:28:38;;;;;;;12.55;2.47;;;11.20;99.90;;;;;;5033941;28;20119;-75
2023/05/17 08:31:05;;;;;;;11.40;2.78;;;11.20;99.90;;;;;;5044131;28;20068;-76
2023/05/17 08:33:32;;;;;;;17.02;3.20;;;11.20;99.90;;;;;;5050710;28;20067;-75
2023/05/17 08:36:00;;;;;;;12.32;2.60;;;11.10;99.90;;;;;;5064290;28;20447;-76
2023/05/17 08:38:26;;;;;;;11.50;2.33;;;11.20;99.90;;;;;;5054299;28;20468;-75
2023/05/17 08:40:53;;;;;;;13.27;2.35;;;11.30;99.90;;;;;;5040217;28;20556;-76
2023/05/17 08:43:21;;;;;;;10.27;2.30;;;11.30;99.90;;;;;;5053984;28;20352;-75
2023/05/17 08:45:48;;;;;;;11.95;2.30;;;11.20;99.90;;;;;;5053840;28;20045;-76
2023/05/17 08:48:16;;;;;;;10.82;2.28;;;11.20;99.90;;;;;;5072332;28;20485;-76
2023/05/17 08:50:43;;;;;;;11.77;2.47;;;11.10;99.90;;;;;;5055603;28;20079;-75
2023/05/17 08:53:10;;;;;;;16.17;2.58;;;11.10;99.90;;;;;;5073597;28;20048;-76
2023/05/17 08:55:37;;;;;;;9.88;2.33;;;11.00;99.90;;;;;;5073537;28;20046;-75
2023/05/17 08:58:05;;;;;;;15.52;2.80;;;10.80;99.90;;;;;;5050140;28;20072;-76
2023/05/17 09:00:32;;;;;;;12.60;2.53;;;10.70;99.90;;;;;;5034610;28;20525;-75
2023/05/17 09:02:59;;;;;;;9.98;2.47;;;10.80;99.90;;;;;;5067165;28;20051;-76
2023/05/17 09:05:26;;;;;;;15.35;2.88;;;10.80;99.90;;;;;;5070088;28;20040;-75
2023/05/17 09:07:55;;;;;;;15.85;3.13;;;10.80;99.90;;;;;;5053740;28;20051;-75
2023/05/17 09:10:20;;;;;;;13.13;2.42;;;10.70;99.90;;;;;;5048639;28;20040;-75
2023/05/17 09:12:47;;;;;;;13.40;2.60;;;10.60;99.90;;;;;;5056896;28;20059;-75
2023/05/17 09:15:18;;;;;;;13.48;2.80;;;10.60;99.90;;;;;;5069858;28;20723;-75
2023/05/17 09:17:52;;;;;;;11.90;2.33;;;10.60;99.90;;;;;;5053550;28;20480;-76
2023/05/17 09:20:32;;;;;;;13.82;3.00;;;10.70;99.90;;;;;;5053341;28;20475;-75
2023/05/17 09:22:59;;;;;;;14.15;2.40;;;10.70;99.90;;;;;;5032944;28;20120;-75
2023/05/17 09:25:27;;;;;;;11.82;2.58;;;10.80;99.90;;;;;;5061086;28;20052;-76
2023/05/17 09:27:54;;;;;;;12.88;3.10;;;10.90;99.90;;;;;;5069927;28;20374;-75
2023/05/17 09:30:27;;;;;;;12.77;2.50;;;11.00;99.90;;;;;;5043364;28;20055;-75
2023/05/17 09:32:54;;;;;;;12.95;2.60;;;11.10;99.90;;;;;;5037469;28;20395;-75
2023/05/17 09:35:28;;;;;;;11.85;2.40;;;11.10;99.90;;;;;;5050761;28;20131;-76
2023/05/17 09:38:04;;;;;;;12.52;2.55;;;11.20;99.90;;;;;;5049915;28;20463;-76
2023/05/17 09:40:29;;;;;;;13.40;2.55;;;11.30;99.90;;;;;;5061577;28;20040;-75
2023/05/17 09:42:57;;;;;;;14.75;2.78;;;11.60;99.90;;;;;;5059815;28;20040;-75
2023/05/17 09:45:23;;;;;;;15.02;2.70;;;11.30;99.90;;;;;;5069690;28;20048;-76
2023/05/17 09:47:51;;;;;;;11.18;2.30;;;11.30;99.90;;;;;;5068292;28;20109;-75
2023/05/17 09:50:20;;;;;;;11.20;2.58;;;11.40;99.90;;;;;;5068759;28;20044;-76
2023/05/17 09:52:46;;;;;;;12.48;2.83;;;11.60;99.90;;;;;;5047512;28;20042;-76
2023/05/17 09:55:14;;;;;;;13.70;2.67;;;11.70;99.90;;;;;;5069199;28;20037;-76
2023/05/17 09:57:40;;;;;;;15.10;2.78;;;11.60;99.90;;;;;;5052485;28;20526;-75
2023/05/17 10:00:11;;;;;;;10.52;2.13;;;11.60;99.90;;;;;;5052745;28;20044;-75
2023/05/17 10:02:39;;;;;;;12.13;2.20;;;11.80;99.90;;;;;;5050021;28;20146;-75
2023/05/17 10:05:09;;;;;;;11.43;2.22;;;11.90;99.90;;;;;;5058747;28;20402;-76
2023/05/17 10:07:37;;;;;;;14.73;2.42;;;11.80;99.90;;;;;;5065529;28;20040;-75
2023/05/17 10:10:04;;;;;;;10.20;1.92;;;11.80;99.90;;;;;;5068697;28;20048;-75
2023/05/17 10:12:33;;;;;;;13.32;2.53;;;11.80;99.90;;;;;;5069019;28;20177;-76
2023/05/17 10:15:00;;;;;;;9.70;2.08;;;11.80;99.90;;;;;;5048142;28;20032;-76
2023/05/17 10:17:31;;;;;;;10.65;2.45;;;11.70;99.90;;;;;;5067453;28;20043;-76
2023/05/17 10:19:57;;;;;;;9.70;2.15;;;11.80;99.90;;;;;;5056036;28;20037;-76
2023/05/17 10:22:23;;;;;;;11.10;2.60;;;11.80;99.90;;;;;;5068771;28;20085;-76
2023/05/17 10:24:52;;;;;;;13.32;2.83;;;11.90;99.90;;;;;;5064310;28;20040;-75
2023/05/17 10:27:20;;;;;;;10.18;2.30;;;12.00;99.90;;;;;;5068655;28;20036;-76
2023/05/17 10:29:46;;;;;;;10.15;2.30;;;12.00;99.90;;;;;;5068583;28;20078;-75
2023/05/17 10:32:13;;;;;;;13.32;2.47;;;12.00;99.90;;;;;;5069027;28;20123;-76
2023/05/17 10:34:39;;;;;;;13.18;2.70;;;12.00;99.90;;;;;;5030879;28;20502;-76
2023/05/17 10:37:06;;;;;;;12.65;2.10;;;12.10;99.90;;;;;;5058686;28;20037;-76
2023/05/17 10:39:33;;;;;;;11.88;2.13;;;12.20;99.90;;;;;;5048181;28;20127;-76
2023/05/17 10:42:02;;;;;;;10.85;2.25;;;12.40;99.90;;;;;;5060742;28;20185;-76
2023/05/17 10:44:32;;;;;;;10.23;2.33;;;12.80;99.90;;;;;;5067118;28;20143;-75
2023/05/17 10:46:59;;;;;;;12.95;2.88;;;12.90;99.90;;;;;;5061494;28;20049;-76
2023/05/17 10:49:28;;;;;;;9.15;2.00;;;13.00;99.90;;;;;;5067341;28;20120;-76
2023/05/17 10:51:57;;;;;;;11.23;2.25;;;12.90;99.90;;;;;;5068664;28;20045;-75
2023/05/17 10:54:34;;;;;;;13.35;2.45;;;12.90;99.90;;;;;;5068321;28;20044;-76
2023/05/17 10:57:04;;;;;;;9.77;2.17;;;12.70;99.90;;;;;;5041935;28;20094;-76
2023/05/17 10:59:31;;;;;;;11.32;2.35;;;12.60;99.90;;;;;;5047774;28;20061;-76
2023/05/17 11:02:00;;;;;;;13.80;2.13;;;12.60;99.90;;;;;;5060359;28;20111;-76
2023/05/17 11:04:43;;;;;;;10.60;2.20;;;12.90;99.90;;;;;;5068136;28;20044;-76
2023/05/17 11:07:20;;;;;;;10.55;2.10;;;12.90;99.90;;;;;;5033740;28;20186;-75
2023/05/17 11:10:11;;;;;;;11.95;2.60;;;13.00;99.90;;;;;;5051292;28;20502;-76
2023/05/17 11:12:46;;;;;;;10.50;2.25;;;12.90;99.90;;;;;;5051554;28;20588;-75
2023/05/17 11:15:16;;;;;;;13.98;2.92;;;12.80;99.90;;;;;;5067777;28;20036;-76
2023/05/17 11:17:42;;;;;;;9.00;2.17;;;12.50;99.90;;;;;;5041269;28;20040;-76
2023/05/17 11:20:13;;;;;;;9.85;2.38;;;12.50;99.90;;;;;;5047682;28;20121;-76
2023/05/17 11:22:54;;;;;;;11.68;2.38;;;12.50;99.90;;;;;;5047793;28;20052;-75
2023/05/17 11:25:20;;;;;;;8.63;2.40;;;12.70;99.90;;;;;;5061869;28;20571;-76
2023/05/17 11:27:47;;;;;;;10.23;2.70;;;12.80;99.90;;;;;;5064524;28;20032;-75
2023/05/17 11:30:20;;;;;;;11.13;2.30;;;13.00;99.90;;;;;;5060710;28;20048;-76
2023/05/17 11:32:49;;;;;;;9.90;2.20;;;12.70;99.90;;;;;;5068004;28;20052;-75
2023/05/17 11:35:17;;;;;;;13.93;2.80;;;12.70;99.90;;;;;;5060963;28;20045;-76
2023/05/17 11:37:43;;;;;;;11.75;2.33;;;12.70;99.90;;;;;;5046828;28;20352;-75
2023/05/17 11:40:12;;;;;;;13.75;3.10;;;12.60;99.90;;;;;;5060517;28;20055;-76
2023/05/17 11:42:38;;;;;;;16.15;3.28;;;12.60;99.90;;;;;;5067555;28;20470;-75
2023/05/17 11:45:05;;;;;;;16.40;2.80;;;12.70;99.90;;;;;;5051096;28;20048;-76
2023/05/17 11:47:31;;;;;;;14.40;3.38;;;12.80;99.90;;;;;;5067780;28;20494;-76
2023/05/17 11:50:02;;;;;;;13.82;3.42;;;12.80;99.90;;;;;;5051766;28;20045;-76
2023/05/17 11:52:28;;;;;;;17.08;2.83;;;12.90;99.90;;;;;;5050191;28;20111;-75
2023/05/17 11:54:57;;;;;;;15.40;3.33;;;12.90;99.90;;;;;;5067523;28;20036;-75
2023/05/17 11:57:29;;;;;;;14.55;2.40;;;12.80;99.90;;;;;;5069483;28;20037;-76
2023/05/17 12:00:04;;;;;;;11.07;2.70;;;12.70;99.90;;;;;;5053557;28;20044;-76
2023/05/17 12:02:32;;;;;;;11.65;2.30;;;12.70;99.90;;;;;;5054769;28;20438;-75
2023/05/17 12:04:58;;;;;;;13.80;2.92;;;12.80;99.90;;;;;;5071108;28;20039;-75
2023/05/17 12:07:24;;;;;;;13.00;2.63;;;12.90;99.90;;;;;;5070978;28;20401;-76
2023/05/17 12:09:51;;;;;;;10.63;2.20;;;13.00;99.90;;;;;;5044789;28;20051;-76
2023/05/17 12:12:20;;;;;;;13.57;2.53;;;13.20;99.90;;;;;;5068309;28;20044;-75
2023/05/17 12:14:47;;;;;;;12.00;2.55;;;13.90;99.90;;;;;;5054657;28;20048;-75
2023/05/17 12:17:26;;;;;;;11.57;2.63;;;13.10;99.90;;;;;;5068588;28;20378;-76
2023/05/17 12:19:53;;;;;;;11.05;2.28;;;13.10;99.90;;;;;;5061234;28;20342;-76
2023/05/17 12:22:18;;;;;;;11.05;2.60;;;13.00;99.90;;;;;;5051735;28;20119;-76
2023/05/17 12:24:44;;;;;;;12.23;2.33;;;13.00;99.90;;;;;;5065085;28;20142;-76
2023/05/17 12:27:10;;;;;;;11.27;2.83;;;13.10;99.90;;;;;;5074818;28;20112;-75
2023/05/17 12:29:37;;;;;;;9.07;2.40;;;13.20;99.90;;;;;;5074582;28;20472;-76
2023/05/17 12:32:04;;;;;;;13.80;2.75;;;13.20;99.90;;;;;;5072275;28;20044;-75
2023/05/17 12:34:30;;;;;;;13.38;2.50;;;13.10;99.90;;;;;;5074389;28;20505;-75
2023/05/17 12:36:57;;;;;;;13.80;3.30;;;13.30;99.90;;;;;;5074901;28;20048;-76
2023/05/17 12:39:23;;;;;;;15.43;2.90;;;13.20;99.90;;;;;;5074155;28;20040;-76
2023/05/17 12:41:50;;;;;;;13.27;2.17;;;13.00;99.90;;;;;;5062554;28;20041;-75
2023/05/17 12:44:19;;;;;;;11.77;2.30;;;13.00;99.90;;;;;;5037303;28;20127;-76